createdAt,value
2018-03-20T00:00:08.466Z,5.32
2018-03-20T00:01:10.954Z,4.62
2018-03-20T00:02:14.195Z,5.03
2018-03-20T00:03:16.673Z,4.45
2018-03-20T00:04:19.150Z,4.95
2018-03-20T00:05:21.626Z,4.60
2018-03-20T00:06:24.882Z,4.68
2018-03-20T00:07:27.354Z,4.87
2018-03-20T00:08:29.814Z,5.18
2018-03-20T00:09:32.283Z,5.30
2018-03-20T00:10:34.742Z,5.10
2018-03-20T00:11:37.246Z,5.43
2018-03-20T00:12:40.479Z,5.28
2018-03-20T00:13:42.947Z,4.80
2018-03-20T00:14:45.417Z,5.22
2018-03-20T00:15:47.898Z,4.62
2018-03-20T00:16:50.418Z,4.93
2018-03-20T00:17:52.879Z,4.70
2018-03-20T00:18:55.345Z,5.22
2018-03-20T00:19:57.809Z,4.85
2018-03-20T00:21:00.282Z,5.72
2018-03-20T00:22:02.774Z,5.00
2018-03-20T00:23:05.349Z,4.50
2018-03-20T00:24:07.822Z,5.03
2018-03-20T00:25:10.295Z,4.80
2018-03-20T00:26:13.534Z,4.87
2018-03-20T00:27:16.043Z,4.75
2018-03-20T00:28:19.274Z,5.43
2018-03-20T00:29:21.742Z,5.12
2018-03-20T00:30:24.224Z,5.30
2018-03-20T00:31:26.701Z,4.78
2018-03-20T00:32:29.190Z,4.87
2018-03-20T00:33:32.438Z,4.93
2018-03-20T00:34:34.899Z,4.53
2018-03-20T00:35:37.358Z,5.00
2018-03-20T00:36:39.834Z,4.62
2018-03-20T00:37:42.310Z,4.75
2018-03-20T00:38:44.778Z,5.62
2018-03-20T00:39:47.254Z,5.18
2018-03-20T00:40:50.522Z,5.37
2018-03-20T00:41:52.982Z,4.70
2018-03-20T00:42:55.478Z,5.30
2018-03-20T00:43:58.701Z,5.20
2018-03-20T00:45:01.170Z,5.22
2018-03-20T00:46:03.634Z,5.50
2018-03-20T00:47:06.107Z,5.65
2018-03-20T00:48:08.590Z,5.07
2018-03-20T00:49:11.074Z,5.03
2018-03-20T00:50:14.342Z,5.10
2018-03-20T00:51:16.801Z,5.00
2018-03-20T00:52:19.303Z,5.40
2018-03-20T00:53:21.784Z,5.12
2018-03-20T00:54:24.294Z,4.72
2018-03-20T00:55:26.782Z,4.70
2018-03-20T00:56:30.011Z,5.43
2018-03-20T00:57:32.469Z,4.95
2018-03-20T00:58:34.971Z,5.07
2018-03-20T00:59:37.458Z,4.93
2018-03-20T01:00:40.708Z,5.03
2018-03-20T01:01:43.170Z,5.25
2018-03-20T01:02:45.648Z,5.22
2018-03-20T01:03:48.138Z,4.82
2018-03-20T01:04:51.363Z,4.72
2018-03-20T01:05:53.833Z,4.75
2018-03-20T01:06:56.988Z,4.75
2018-03-20T01:07:59.453Z,4.60
2018-03-20T01:09:01.949Z,4.32
2018-03-20T01:10:04.420Z,4.55
2018-03-20T01:11:06.884Z,4.80
2018-03-20T01:12:09.355Z,5.12
2018-03-20T01:13:11.822Z,5.10
2018-03-20T01:14:14.401Z,5.15
2018-03-20T01:15:17.682Z,5.22
2018-03-20T01:16:20.150Z,5.20
2018-03-20T01:17:23.426Z,4.85
2018-03-20T01:18:25.882Z,4.93
2018-03-20T01:19:28.392Z,5.20
2018-03-20T01:20:30.863Z,5.12
2018-03-20T01:21:33.336Z,5.18
2018-03-20T01:22:35.845Z,4.87
2018-03-20T01:23:38.322Z,4.53
2018-03-20T01:24:41.585Z,4.55
2018-03-20T01:25:44.825Z,5.55
2018-03-20T01:26:47.290Z,5.30
2018-03-20T01:27:49.759Z,5.28
2018-03-20T01:28:52.223Z,5.25
2018-03-20T01:29:54.714Z,5.07
2018-03-20T01:30:57.197Z,5.07
2018-03-20T01:31:59.657Z,4.93
2018-03-20T01:33:02.145Z,4.75
2018-03-20T01:34:05.375Z,5.10
2018-03-20T01:35:07.862Z,5.15
2018-03-20T01:36:10.322Z,5.53
2018-03-20T01:37:12.782Z,4.82
2018-03-20T01:38:15.247Z,4.95
2018-03-20T01:39:17.714Z,5.28
2018-03-20T01:40:20.199Z,4.47
2018-03-20T01:41:22.658Z,5.47
2018-03-20T01:42:25.222Z,4.80
2018-03-20T01:43:27.686Z,4.93
2018-03-20T01:44:30.151Z,4.95
2018-03-20T01:45:32.634Z,4.78
2018-03-20T01:46:35.867Z,4.97
2018-03-20T01:47:38.327Z,4.70
2018-03-20T01:48:40.796Z,4.72
2018-03-20T01:49:43.257Z,4.68
2018-03-20T01:50:45.746Z,4.60
2018-03-20T01:51:48.213Z,4.85
2018-03-20T01:53:02.735Z,4.82
2018-03-20T01:54:05.224Z,5.00
2018-03-20T01:55:07.696Z,4.82
2018-03-20T01:56:10.183Z,4.93
2018-03-20T01:57:13.409Z,4.75
2018-03-20T01:58:15.874Z,5.00
2018-03-20T01:59:18.376Z,4.35
2018-03-20T02:00:20.858Z,4.95
2018-03-20T02:01:24.115Z,5.00
2018-03-20T02:02:26.593Z,5.10
2018-03-20T02:03:29.058Z,5.18
2018-03-20T02:04:32.295Z,5.45
2018-03-20T02:05:34.754Z,4.53
2018-03-20T02:06:37.239Z,4.62
2018-03-20T02:07:39.726Z,4.97
2018-03-20T02:08:42.194Z,4.72
2018-03-20T02:09:44.669Z,4.97
2018-03-20T02:10:47.896Z,5.15
2018-03-20T02:11:50.402Z,4.72
2018-03-20T02:12:52.870Z,4.90
2018-03-20T02:13:55.338Z,5.28
2018-03-20T02:14:57.805Z,5.20
2018-03-20T02:16:01.034Z,5.07
2018-03-20T02:17:04.101Z,4.85
2018-03-20T02:18:06.573Z,5.12
2018-03-20T02:19:09.045Z,4.43
2018-03-20T02:20:11.510Z,5.03
2018-03-20T02:21:14.015Z,5.00
2018-03-20T02:22:16.502Z,5.07
2018-03-20T02:23:19.742Z,5.60
2018-03-20T02:24:22.223Z,5.28
2018-03-20T02:25:24.697Z,5.62
2018-03-20T02:26:27.923Z,5.00
2018-03-20T02:27:30.434Z,5.82
2018-03-20T02:28:32.913Z,5.57
2018-03-20T02:29:36.146Z,5.60
2018-03-20T02:30:38.615Z,4.90
2018-03-20T02:31:41.094Z,6.10
2018-03-20T02:32:43.586Z,5.40
2018-03-20T02:33:46.052Z,4.97
2018-03-20T02:34:49.286Z,5.60
2018-03-20T02:35:51.750Z,5.68
2018-03-20T02:36:54.218Z,5.05
2018-03-20T02:37:56.699Z,5.60
2018-03-20T02:38:59.191Z,6.10
2018-03-20T02:40:02.445Z,5.80
2018-03-20T02:41:04.907Z,5.97
2018-03-20T02:42:07.396Z,5.87
2018-03-20T02:43:09.882Z,5.50
2018-03-20T02:44:13.110Z,6.00
2018-03-20T02:45:15.574Z,5.60
2018-03-20T02:46:21.702Z,6.28
2018-03-20T02:47:24.182Z,6.18
2018-03-20T02:48:26.676Z,5.72
2018-03-20T02:49:29.151Z,5.68
2018-03-20T02:50:31.615Z,5.97
2018-03-20T02:51:34.102Z,5.68
2018-03-20T02:52:37.333Z,6.22
2018-03-20T02:53:39.815Z,6.20
2018-03-20T02:54:42.313Z,6.20
2018-03-20T02:55:45.535Z,5.80
2018-03-20T02:56:48.009Z,5.85
2018-03-20T02:57:50.474Z,6.22
2018-03-20T02:58:52.968Z,5.82
2018-03-20T02:59:55.531Z,5.95
2018-03-20T03:00:58.022Z,6.37
2018-03-20T03:02:01.251Z,6.15
2018-03-20T03:03:03.729Z,6.35
2018-03-20T03:04:06.222Z,6.07
2018-03-20T03:05:09.461Z,6.22
2018-03-20T03:06:11.927Z,6.22
2018-03-20T03:07:14.395Z,6.35
2018-03-20T03:08:16.862Z,6.37
2018-03-20T03:09:19.355Z,6.03
2018-03-20T03:10:21.852Z,5.85
2018-03-20T03:11:24.326Z,6.50
2018-03-20T03:12:26.787Z,5.97
2018-03-20T03:13:29.254Z,5.90
2018-03-20T03:14:31.733Z,6.37
2018-03-20T03:15:34.206Z,5.97
2018-03-20T03:16:36.679Z,5.93
2018-03-20T03:17:39.138Z,6.05
2018-03-20T03:18:41.611Z,6.87
2018-03-20T03:19:44.102Z,6.32
2018-03-20T03:20:46.654Z,6.32
2018-03-20T03:21:49.122Z,6.82
2018-03-20T03:22:51.590Z,6.53
2018-03-20T03:23:54.067Z,6.40
2018-03-20T03:24:57.334Z,6.35
2018-03-20T03:25:59.799Z,6.10
2018-03-20T03:27:02.266Z,6.35
2018-03-20T03:28:04.735Z,5.85
2018-03-20T03:29:07.200Z,6.05
2018-03-20T03:30:09.692Z,6.28
2018-03-20T03:31:12.161Z,6.40
2018-03-20T03:32:14.630Z,6.87
2018-03-20T03:33:17.106Z,6.50
2018-03-20T03:34:19.570Z,6.12
2018-03-20T03:35:22.078Z,6.57
2018-03-20T03:36:24.541Z,5.75
2018-03-20T03:37:27.054Z,6.90
2018-03-20T03:38:30.249Z,6.30
2018-03-20T03:39:32.714Z,6.10
2018-03-20T03:40:35.200Z,6.53
2018-03-20T03:41:37.671Z,6.12
2018-03-20T03:42:41.647Z,5.60
2018-03-20T03:43:44.159Z,5.90
2018-03-20T03:44:47.413Z,6.10
2018-03-20T03:45:49.894Z,5.90
2018-03-20T03:46:52.358Z,6.20
2018-03-20T03:47:54.827Z,6.10
2018-03-20T03:48:57.295Z,6.47
2018-03-20T03:49:59.787Z,6.53
2018-03-20T03:51:02.318Z,7.03
2018-03-20T03:52:04.782Z,6.43
2018-03-20T03:53:07.249Z,6.57
2018-03-20T03:54:09.819Z,6.82
2018-03-20T03:55:13.049Z,6.32
2018-03-20T03:56:15.535Z,6.80
2018-03-20T03:57:18.008Z,6.40
2018-03-20T03:58:20.476Z,6.75
2018-03-20T03:59:22.942Z,6.57
2018-03-20T04:00:25.448Z,6.68
2018-03-20T04:01:28.721Z,6.60
2018-03-20T04:02:31.974Z,6.65
2018-03-20T04:03:34.547Z,6.43
2018-03-20T04:04:37.026Z,7.10
2018-03-20T04:05:40.262Z,6.22
2018-03-20T04:06:42.763Z,6.32
2018-03-20T04:07:45.221Z,6.10
2018-03-20T04:08:47.792Z,5.95
2018-03-20T04:09:50.258Z,6.53
2018-03-20T04:10:53.493Z,6.53
2018-03-20T04:11:55.986Z,6.70
2018-03-20T04:12:58.445Z,6.62
2018-03-20T04:14:00.914Z,6.10
2018-03-20T04:15:03.379Z,6.55
2018-03-20T04:16:05.860Z,6.20
2018-03-20T04:17:08.344Z,6.55
2018-03-20T04:18:11.600Z,5.90
2018-03-20T04:19:14.054Z,6.10
2018-03-20T04:20:16.522Z,7.22
2018-03-20T04:21:18.998Z,6.25
2018-03-20T04:22:21.490Z,6.00
2018-03-20T04:23:24.726Z,6.57
2018-03-20T04:24:27.198Z,6.80
2018-03-20T04:25:29.678Z,6.62
2018-03-20T04:26:32.141Z,5.75
2018-03-20T04:27:34.710Z,6.18
2018-03-20T04:28:37.182Z,6.65
2018-03-20T04:29:39.650Z,6.00
2018-03-20T04:30:42.105Z,6.35
2018-03-20T04:31:44.570Z,6.37
2018-03-20T04:32:47.058Z,6.68
2018-03-20T04:33:50.295Z,5.78
2018-03-20T04:34:52.758Z,7.00
2018-03-20T04:35:55.242Z,6.07
2018-03-20T04:36:57.814Z,6.30
2018-03-20T04:38:00.322Z,7.10
2018-03-20T04:39:02.784Z,7.10
2018-03-20T04:40:05.246Z,6.10
2018-03-20T04:41:07.710Z,6.62
2018-03-20T04:42:10.334Z,6.43
2018-03-20T04:43:12.825Z,6.97
2018-03-20T04:44:16.058Z,6.50
2018-03-20T04:45:18.542Z,6.78
2018-03-20T04:46:21.136Z,6.05
2018-03-20T04:47:24.362Z,6.50
2018-03-20T04:48:26.851Z,6.55
2018-03-20T04:49:30.087Z,6.65
2018-03-20T04:50:32.561Z,6.65
2018-03-20T04:51:35.026Z,7.35
2018-03-20T04:52:37.496Z,5.82
2018-03-20T04:53:39.993Z,7.07
2018-03-20T04:54:42.458Z,6.85
2018-03-20T04:55:44.926Z,6.80
2018-03-20T04:56:47.390Z,6.60
2018-03-20T04:57:50.661Z,6.80
2018-03-20T04:58:53.146Z,6.62
2018-03-20T04:59:55.618Z,6.85
2018-03-20T05:00:58.852Z,6.32
2018-03-20T05:02:01.338Z,6.07
2018-03-20T05:03:03.808Z,6.90
2018-03-20T05:04:06.306Z,6.53
2018-03-20T05:05:09.619Z,6.37
2018-03-20T05:06:12.070Z,6.57
2018-03-20T05:07:14.622Z,6.75
2018-03-20T05:08:17.163Z,6.65
2018-03-20T05:09:19.658Z,6.68
2018-03-20T05:10:22.126Z,6.90
2018-03-20T05:11:24.655Z,6.87
2018-03-20T05:12:27.119Z,7.12
2018-03-20T05:13:29.611Z,7.30
2018-03-20T05:14:32.862Z,6.18
2018-03-20T05:15:35.330Z,7.40
2018-03-20T05:16:37.813Z,6.65
2018-03-20T05:17:41.046Z,6.78
2018-03-20T05:20:28.061Z,6.95
2018-03-20T05:21:34.184Z,6.57
2018-03-20T05:22:41.521Z,6.95
2018-03-20T05:23:45.283Z,6.93
2018-03-20T05:24:47.756Z,6.85
2018-03-20T05:25:50.250Z,7.03
2018-03-20T05:26:53.508Z,6.43
2018-03-20T05:27:55.982Z,6.72
2018-03-20T05:28:58.502Z,7.28
2018-03-20T05:30:00.965Z,6.47
2018-03-20T05:31:03.459Z,7.45
2018-03-20T05:32:05.926Z,7.30
2018-03-20T05:33:08.401Z,6.25
2018-03-20T05:34:10.887Z,6.22
2018-03-20T05:35:13.354Z,6.18
2018-03-20T05:36:15.846Z,6.07
2018-03-20T05:37:18.314Z,6.57
2018-03-20T05:38:20.816Z,6.55
2018-03-20T05:39:23.266Z,6.70
2018-03-20T05:40:25.748Z,6.78
2018-03-20T05:41:28.254Z,6.37
2018-03-20T05:42:31.494Z,7.45
2018-03-20T05:43:33.977Z,6.72
2018-03-20T05:44:36.454Z,7.20
2018-03-20T05:45:38.926Z,6.20
2018-03-20T05:48:37.412Z,6.35
2018-03-20T05:49:46.181Z,6.90
2018-03-20T05:50:54.410Z,6.10
2018-03-20T05:52:12.698Z,6.93
2018-03-20T05:53:15.165Z,6.82
2018-03-20T05:54:17.633Z,6.10
2018-03-20T05:55:20.369Z,6.50
2018-03-20T05:56:23.602Z,6.35
2018-03-20T05:57:26.101Z,6.97
2018-03-20T05:58:29.367Z,7.43
2018-03-20T05:59:31.835Z,6.82
2018-03-20T06:00:34.323Z,6.78
2018-03-20T06:01:37.563Z,7.20
2018-03-20T06:02:40.065Z,7.65
2018-03-20T06:03:43.322Z,7.15
2018-03-20T06:04:45.811Z,6.70
2018-03-20T06:05:49.043Z,7.65
2018-03-20T06:06:51.518Z,7.75
2018-03-20T06:07:54.014Z,6.72
2018-03-20T06:08:56.504Z,7.80
2018-03-20T06:09:58.970Z,7.87
2018-03-20T06:11:01.460Z,7.05
2018-03-20T06:12:03.938Z,8.75
2018-03-20T06:13:06.434Z,8.38
2018-03-20T06:14:08.910Z,8.45
2018-03-20T06:15:12.212Z,7.75
2018-03-20T06:16:14.691Z,7.70
2018-03-20T06:17:17.198Z,6.87
2018-03-20T06:18:19.687Z,7.10
2018-03-20T06:19:22.939Z,7.03
2018-03-20T06:20:25.414Z,6.78
2018-03-20T06:21:27.889Z,7.12
2018-03-20T06:22:30.366Z,7.07
2018-03-20T06:23:33.627Z,7.68
2018-03-20T06:24:36.111Z,6.97
2018-03-20T06:25:39.362Z,7.12
2018-03-20T06:26:42.301Z,7.85
2018-03-20T06:27:44.783Z,6.80
2018-03-20T06:28:47.286Z,7.10
2018-03-20T06:29:49.788Z,7.50
2018-03-20T06:30:53.031Z,7.00
2018-03-20T06:31:55.552Z,7.30
2018-03-20T06:32:58.025Z,6.97
2018-03-20T06:34:00.525Z,6.47
2018-03-20T06:35:02.999Z,6.75
2018-03-20T06:36:06.247Z,6.55
2018-03-20T06:37:08.761Z,6.93
2018-03-20T06:38:12.004Z,6.70
2018-03-20T06:39:14.536Z,6.18
2018-03-20T06:40:17.056Z,7.70
2018-03-20T06:41:19.547Z,7.00
2018-03-20T06:42:22.775Z,6.18
2018-03-20T06:43:25.244Z,6.65
2018-03-20T06:44:27.746Z,6.90
2018-03-20T06:45:31.049Z,7.05
2018-03-20T06:46:33.560Z,6.47
2018-03-20T06:47:36.052Z,6.65
2018-03-20T06:48:39.298Z,6.93
2018-03-20T06:49:41.818Z,6.68
2018-03-20T06:50:45.080Z,8.02
2018-03-20T06:51:47.567Z,7.10
2018-03-20T06:52:50.805Z,7.32
2018-03-20T06:53:53.283Z,6.80
2018-03-20T06:54:55.777Z,7.10
2018-03-20T06:55:59.010Z,6.72
2018-03-20T06:57:01.484Z,7.05
2018-03-20T06:58:03.969Z,7.35
2018-03-20T06:59:07.207Z,7.47
2018-03-20T07:01:35.416Z,8.02
2018-03-20T07:02:37.889Z,6.95
2018-03-20T07:03:41.154Z,7.00
2018-03-20T07:04:43.768Z,7.20
2018-03-20T07:05:46.302Z,7.35
2018-03-20T07:06:48.790Z,7.00
2018-03-20T07:07:52.026Z,7.97
2018-03-20T07:08:54.506Z,7.50
2018-03-20T07:09:57.807Z,7.20
2018-03-20T07:11:01.103Z,7.05
2018-03-20T07:12:04.402Z,7.72
2018-03-20T07:13:06.870Z,7.75
2018-03-20T07:14:09.354Z,7.30
2018-03-20T07:15:11.836Z,7.82
2018-03-20T07:16:14.308Z,7.57
2018-03-20T07:17:16.802Z,8.40
2018-03-20T07:18:20.050Z,7.80
2018-03-20T07:19:22.569Z,8.80
2018-03-20T07:20:25.806Z,8.20
2018-03-20T07:21:28.305Z,9.32
2018-03-20T07:22:30.821Z,8.07
2018-03-20T07:23:33.322Z,8.77
2018-03-20T07:24:36.558Z,9.48
2018-03-20T07:25:39.026Z,8.95
2018-03-20T07:26:41.490Z,9.35
2018-03-20T07:27:43.984Z,9.35
2018-03-20T07:28:46.453Z,9.48
2018-03-20T07:29:48.929Z,9.68
2018-03-20T07:30:52.169Z,9.10
2018-03-20T07:31:54.662Z,9.73
2018-03-20T07:32:57.163Z,10.25
2018-03-20T07:33:59.632Z,8.77
2018-03-20T07:35:02.108Z,10.13
2018-03-20T07:36:04.580Z,9.70
2018-03-20T07:37:07.069Z,11.12
2018-03-20T07:38:09.566Z,10.07
2018-03-20T07:39:12.811Z,10.63
2018-03-20T07:40:15.269Z,9.70
2018-03-20T07:41:17.751Z,10.13
2018-03-20T07:42:20.222Z,10.63
2018-03-20T07:43:22.722Z,9.98
2018-03-20T07:44:25.232Z,9.52
2018-03-20T07:45:27.721Z,9.77
2018-03-20T07:46:30.274Z,10.05
2018-03-20T07:47:32.715Z,9.73
2018-03-20T07:48:35.256Z,9.90
2018-03-20T07:49:39.321Z,11.02
2018-03-20T07:50:42.586Z,11.95
2018-03-20T07:51:45.063Z,10.18
2018-03-20T07:52:47.542Z,10.25
2018-03-20T07:53:50.916Z,9.65
2018-03-20T07:54:53.398Z,10.82
2018-03-20T07:55:56.636Z,11.15
2018-03-20T07:56:59.119Z,9.68
2018-03-20T07:58:01.594Z,10.75
2018-03-20T07:59:04.096Z,9.80
2018-03-20T08:00:06.575Z,10.73
2018-03-20T08:01:09.061Z,11.20
2018-03-20T08:02:12.393Z,10.23
2018-03-20T08:03:14.939Z,10.05
2018-03-20T08:04:17.518Z,12.20
2018-03-20T08:05:20.753Z,12.27
2018-03-20T08:06:23.239Z,10.38
2018-03-20T08:07:25.710Z,11.05
2018-03-20T08:08:28.197Z,10.70
2018-03-20T08:09:31.511Z,10.48
2018-03-20T08:10:34.022Z,11.43
2018-03-20T08:11:36.498Z,10.63
2018-03-20T08:12:38.974Z,11.12
2018-03-20T08:13:42.229Z,11.20
2018-03-20T08:14:44.738Z,10.15
2018-03-20T08:15:47.207Z,11.50
2018-03-20T08:16:49.742Z,10.63
2018-03-20T08:17:52.230Z,12.10
2018-03-20T08:18:54.735Z,12.50
2018-03-20T08:19:57.234Z,11.48
2018-03-20T08:20:59.722Z,11.52
2018-03-20T08:22:02.197Z,10.95
2018-03-20T08:23:04.722Z,11.52
2018-03-20T08:24:07.211Z,13.55
2018-03-20T08:25:10.487Z,11.93
2018-03-20T08:26:13.718Z,11.82
2018-03-20T08:27:16.211Z,12.25
2018-03-20T08:28:18.700Z,12.30
2018-03-20T08:29:21.978Z,12.05
2018-03-20T08:30:24.466Z,11.98
2018-03-20T08:31:27.431Z,10.48
2018-03-20T08:32:29.918Z,12.20
2018-03-20T08:33:32.402Z,12.10
2018-03-20T08:34:34.870Z,13.00
2018-03-20T08:35:37.366Z,14.15
2018-03-20T08:36:39.865Z,12.60
2018-03-20T08:37:42.338Z,13.40
2018-03-20T08:38:44.806Z,12.20
2018-03-20T08:39:47.298Z,13.98
2018-03-20T08:40:49.797Z,15.23
2018-03-20T08:41:52.267Z,14.10
2018-03-20T08:42:55.515Z,13.62
2018-03-20T08:43:58.010Z,10.90
2018-03-20T08:45:00.492Z,13.60
2018-03-20T08:46:03.753Z,14.35
2018-03-20T08:47:06.231Z,13.50
2018-03-20T08:48:09.471Z,13.45
2018-03-20T08:49:11.958Z,15.05
2018-03-20T08:50:14.434Z,19.62
2018-03-20T08:51:16.945Z,25.17
2018-03-20T08:52:19.423Z,18.05
2018-03-20T08:53:21.912Z,19.87
2018-03-20T08:54:24.386Z,14.75
2018-03-20T08:55:26.922Z,14.80
2018-03-20T08:56:29.442Z,14.60
2018-03-20T08:57:32.686Z,15.55
2018-03-20T08:58:35.191Z,14.75
2018-03-20T08:59:38.430Z,15.07
2018-03-20T09:00:40.912Z,14.87
2018-03-20T09:01:43.462Z,14.52
2018-03-20T09:02:45.941Z,14.43
2018-03-20T09:03:48.431Z,12.93
2018-03-20T09:04:51.671Z,16.27
2018-03-20T09:05:54.163Z,17.08
2018-03-20T09:06:57.446Z,13.95
2018-03-20T09:08:00.704Z,14.95
2018-03-20T09:09:03.186Z,16.62
2018-03-20T09:10:05.670Z,14.68
2018-03-20T09:11:08.930Z,14.43
2018-03-20T09:12:11.431Z,14.38
2018-03-20T09:13:13.909Z,15.00
2018-03-20T09:14:16.468Z,14.48
2018-03-20T09:15:18.959Z,13.32
2018-03-20T09:16:21.442Z,14.25
2018-03-20T09:17:23.934Z,15.18
2018-03-20T09:18:27.922Z,15.02
2018-03-20T09:19:30.486Z,15.45
2018-03-20T09:20:32.969Z,15.65
2018-03-20T09:21:36.217Z,16.10
2018-03-20T09:22:38.711Z,15.07
2018-03-20T09:23:41.177Z,13.70
2018-03-20T09:24:44.424Z,16.52
2018-03-20T09:25:46.898Z,15.38
2018-03-20T09:26:49.389Z,15.32
2018-03-20T09:27:51.889Z,17.45
2018-03-20T09:28:54.366Z,14.60
2018-03-20T09:29:56.880Z,13.20
2018-03-20T09:30:59.441Z,15.57
2018-03-20T09:32:01.929Z,14.10
2018-03-20T09:33:05.196Z,13.75
2018-03-20T09:34:07.688Z,16.02
2018-03-20T09:35:10.165Z,15.10
2018-03-20T09:36:12.646Z,15.48
2018-03-20T09:37:15.188Z,15.13
2018-03-20T09:38:17.691Z,15.20
2018-03-20T09:39:20.183Z,16.73
2018-03-20T09:40:22.654Z,15.32
2018-03-20T09:41:25.905Z,16.00
2018-03-20T09:42:28.374Z,15.60
2018-03-20T09:43:30.895Z,14.50
2018-03-20T09:44:33.367Z,15.57
2018-03-20T09:45:35.866Z,15.18
2018-03-20T09:46:38.345Z,14.25
2018-03-20T09:47:40.840Z,16.05
2018-03-20T09:48:44.198Z,8.27
2018-03-20T09:49:46.671Z,8.70
2018-03-20T09:50:49.142Z,10.88
2018-03-20T09:51:52.381Z,12.75
2018-03-20T09:52:54.850Z,12.07
2018-03-20T09:53:57.338Z,7.65
2018-03-20T09:54:59.814Z,9.60
2018-03-20T09:56:03.057Z,8.32
2018-03-20T09:57:05.590Z,8.88
2018-03-20T09:58:08.066Z,9.80
2018-03-20T09:59:10.553Z,8.95
2018-03-20T10:00:13.078Z,9.70
2018-03-20T10:01:15.520Z,9.55
2018-03-20T10:02:18.082Z,8.93
2018-03-20T10:03:20.554Z,9.00
2018-03-20T10:04:23.057Z,9.55
2018-03-20T10:05:25.518Z,9.82
2018-03-20T10:06:27.990Z,6.18
2018-03-20T10:07:30.461Z,9.00
2018-03-20T10:08:32.955Z,9.45
2018-03-20T10:09:35.466Z,9.65
2018-03-20T10:10:37.933Z,10.70
2018-03-20T10:11:40.402Z,6.07
2018-03-20T10:12:42.934Z,4.87
2018-03-20T10:13:46.172Z,9.73
2018-03-20T10:14:48.673Z,4.32
2018-03-20T10:15:51.139Z,8.18
2018-03-20T10:16:53.614Z,7.93
2018-03-20T10:17:56.854Z,7.18
2018-03-20T10:18:59.338Z,8.32
2018-03-20T10:20:01.827Z,7.87
2018-03-20T10:21:05.061Z,8.40
2018-03-20T10:22:07.532Z,8.20
2018-03-20T10:23:10.054Z,8.27
2018-03-20T10:24:12.538Z,8.32
2018-03-20T10:25:15.044Z,7.05
2018-03-20T10:26:17.533Z,7.78
2018-03-20T10:27:20.781Z,7.10
2018-03-20T10:28:23.656Z,7.40
2018-03-20T10:29:26.122Z,6.72
2018-03-20T10:30:28.659Z,6.62
2018-03-20T10:31:31.145Z,6.20
2018-03-20T10:32:33.615Z,6.35
2018-03-20T10:33:36.079Z,6.65
2018-03-20T10:34:38.567Z,6.85
2018-03-20T10:35:41.074Z,6.87
2018-03-20T10:36:43.548Z,6.07
2018-03-20T10:37:46.013Z,6.85
2018-03-20T10:38:48.486Z,5.78
2018-03-20T10:39:50.954Z,6.05
2018-03-20T10:40:53.450Z,5.65
2018-03-20T10:41:55.927Z,5.57
2018-03-20T10:42:59.159Z,5.82
2018-03-20T10:44:01.635Z,5.28
2018-03-20T10:45:04.102Z,7.00
2018-03-20T10:46:06.593Z,4.55
2018-03-20T10:47:09.078Z,3.70
2018-03-20T10:48:12.307Z,4.60
2018-03-20T10:49:14.834Z,5.90
2018-03-20T10:50:17.352Z,5.00
2018-03-20T10:51:19.841Z,4.78
2018-03-20T10:52:23.090Z,3.17
2018-03-20T10:53:25.859Z,4.43
2018-03-20T10:54:28.366Z,4.78
2018-03-20T10:55:31.622Z,3.95
2018-03-20T10:56:34.122Z,3.67
2018-03-20T10:57:37.386Z,3.20
2018-03-20T10:58:39.905Z,4.30
2018-03-20T10:59:42.380Z,3.90
2018-03-20T11:00:49.698Z,4.10
2018-03-20T11:01:52.970Z,3.47
2018-03-20T11:02:55.432Z,2.10
2018-03-20T11:03:58.010Z,3.30
2018-03-20T11:05:00.488Z,2.70
2018-03-20T11:06:03.732Z,1.80
2018-03-20T11:07:06.235Z,2.30
2018-03-20T11:08:09.462Z,2.30
2018-03-20T11:09:11.933Z,2.60
2018-03-20T11:10:14.399Z,2.10
2018-03-20T11:11:16.867Z,2.80
2018-03-20T11:12:19.372Z,2.00
2018-03-20T11:13:22.607Z,2.42
2018-03-20T11:14:25.074Z,1.80
2018-03-20T11:15:27.542Z,2.10
2018-03-20T11:16:30.015Z,2.00
2018-03-20T11:17:32.556Z,2.05
2018-03-20T11:18:35.754Z,2.30
2018-03-20T11:19:38.228Z,2.20
2018-03-20T11:20:40.708Z,2.55
2018-03-20T11:21:43.305Z,2.15
2018-03-20T11:22:45.803Z,2.67
2018-03-20T11:23:48.262Z,1.58
2018-03-20T11:24:50.732Z,2.28
2018-03-20T11:25:53.202Z,1.95
2018-03-20T11:26:55.666Z,2.15
2018-03-20T11:27:58.150Z,1.95
2018-03-20T11:29:00.623Z,2.45
2018-03-20T11:30:03.092Z,2.12
2018-03-20T11:31:06.346Z,1.92
2018-03-20T11:32:08.820Z,2.20
2018-03-20T11:33:11.306Z,1.83
2018-03-20T11:34:13.789Z,2.80
2018-03-20T11:35:17.027Z,2.10
2018-03-20T11:36:19.530Z,2.33
2018-03-20T11:37:22.758Z,2.78
2018-03-20T11:38:25.312Z,2.50
2018-03-20T11:39:27.783Z,1.85
2018-03-20T11:40:30.301Z,2.47
2018-03-20T11:41:32.770Z,2.67
2018-03-20T11:42:35.238Z,1.92
2018-03-20T11:43:38.502Z,1.95
2018-03-20T11:44:40.969Z,1.95
2018-03-20T11:45:43.438Z,1.83
2018-03-20T11:46:45.917Z,2.17
2018-03-20T11:47:49.176Z,2.05
2018-03-20T11:48:51.667Z,1.70
2018-03-20T11:49:54.902Z,1.40
2018-03-20T11:50:57.370Z,1.35
2018-03-20T11:51:59.838Z,1.50
2018-03-20T11:53:02.314Z,1.70
2018-03-20T11:54:04.813Z,1.80
2018-03-20T11:55:08.047Z,1.10
2018-03-20T11:56:10.514Z,1.50
2018-03-20T11:57:12.981Z,1.30
2018-03-20T11:58:15.464Z,1.60
2018-03-20T11:59:17.945Z,1.40
2018-03-20T12:00:21.182Z,1.30
2018-03-20T12:01:23.646Z,1.30
2018-03-20T12:02:26.117Z,1.23
2018-03-20T12:03:28.578Z,1.17
2018-03-20T12:04:31.070Z,1.25
2018-03-20T12:05:33.568Z,1.25
2018-03-20T12:06:36.039Z,1.62
2018-03-20T12:07:50.341Z,1.45
2018-03-20T12:10:22.146Z,1.15
2018-03-20T12:11:24.613Z,1.25
2018-03-20T12:12:27.091Z,1.30
2018-03-20T12:13:29.587Z,1.30
2018-03-20T12:14:32.073Z,1.27
2018-03-20T12:15:35.350Z,1.40
2018-03-20T12:16:37.822Z,1.20
2018-03-20T12:17:41.138Z,1.30
2018-03-20T12:18:43.610Z,1.40
2018-03-20T12:19:46.084Z,1.42
2018-03-20T12:20:48.580Z,1.17
2018-03-20T12:21:51.066Z,1.23
2018-03-20T12:22:54.298Z,1.30
2018-03-20T12:23:56.762Z,1.45
2018-03-20T12:24:59.227Z,1.12
2018-03-20T12:26:01.714Z,1.20
2018-03-20T12:27:04.962Z,0.88
2018-03-20T12:28:07.441Z,1.77
2018-03-20T12:29:09.926Z,1.23
2018-03-20T12:30:12.423Z,1.20
2018-03-20T12:31:15.725Z,1.35
2018-03-20T12:32:18.216Z,1.00
2018-03-20T12:33:20.699Z,1.33
2018-03-20T12:34:23.158Z,0.73
2018-03-20T12:35:25.659Z,1.12
2018-03-20T12:36:28.934Z,1.23
2018-03-20T12:37:32.182Z,1.08
2018-03-20T12:38:34.660Z,0.60
2018-03-20T12:39:37.139Z,1.30
2018-03-20T12:40:39.626Z,1.25
2018-03-20T12:41:42.883Z,0.75
2018-03-20T12:42:45.352Z,0.98
2018-03-20T12:43:47.840Z,0.85
2018-03-20T12:44:51.080Z,0.85
2018-03-20T12:45:53.546Z,0.75
2018-03-20T12:46:56.031Z,1.42
2018-03-20T12:47:58.500Z,1.17
2018-03-20T12:49:01.734Z,1.05
2018-03-20T12:50:04.222Z,1.10
2018-03-20T12:51:06.683Z,1.15
2018-03-20T12:52:09.196Z,1.23
2018-03-20T12:53:12.468Z,1.10
2018-03-20T12:54:15.710Z,1.10
2018-03-20T12:55:18.181Z,1.30
2018-03-20T12:56:20.673Z,1.35
2018-03-20T12:57:23.936Z,0.90
2018-03-20T12:58:27.910Z,1.20
2018-03-20T12:59:30.423Z,0.88
2018-03-20T13:00:33.667Z,1.45
2018-03-20T13:01:36.146Z,1.08
2018-03-20T13:02:38.635Z,1.15
2018-03-20T13:03:41.875Z,0.65
2018-03-20T13:04:44.377Z,1.25
2018-03-20T13:05:46.842Z,1.40
2018-03-20T13:06:49.306Z,0.80
2018-03-20T13:07:51.790Z,1.05
2018-03-20T13:08:55.024Z,0.98
2018-03-20T13:09:57.491Z,1.10
2018-03-20T13:10:59.961Z,0.77
2018-03-20T13:12:02.425Z,0.98
2018-03-20T13:13:04.917Z,0.80
2018-03-20T13:14:08.155Z,0.75
2018-03-20T13:15:10.646Z,0.50
2018-03-20T13:16:13.114Z,0.95
2018-03-20T13:17:15.600Z,1.00
2018-03-20T13:18:18.874Z,1.00
2018-03-20T13:19:22.160Z,0.95
2018-03-20T13:20:24.582Z,0.93
2018-03-20T13:21:27.050Z,1.00
2018-03-20T13:22:29.574Z,0.80
2018-03-20T13:23:32.063Z,1.00
2018-03-20T13:24:34.530Z,1.20
2018-03-20T13:25:37.026Z,1.15
2018-03-20T13:26:39.490Z,1.10
2018-03-20T13:27:41.963Z,1.17
2018-03-20T13:28:44.535Z,1.08
2018-03-20T13:29:47.015Z,1.10
2018-03-20T13:30:50.263Z,1.08
2018-03-20T13:31:53.671Z,0.60
2018-03-20T13:32:56.907Z,0.95
2018-03-20T13:33:59.406Z,0.90
2018-03-20T13:35:01.867Z,1.02
2018-03-20T13:36:04.341Z,1.12
2018-03-20T13:37:06.809Z,0.90
2018-03-20T13:38:09.269Z,0.68
2018-03-20T13:39:11.758Z,1.02
2018-03-20T13:40:14.260Z,0.80
2018-03-20T13:41:16.734Z,1.20
2018-03-20T13:42:19.207Z,0.88
2018-03-20T13:43:21.690Z,0.75
2018-03-20T13:44:24.181Z,0.82
2018-03-20T13:45:27.806Z,0.80
2018-03-20T13:46:31.219Z,1.10
2018-03-20T13:47:33.694Z,0.80
2018-03-20T13:48:36.161Z,1.10
2018-03-20T13:49:39.704Z,1.10
2018-03-20T13:50:42.178Z,0.68
2018-03-20T13:51:44.645Z,1.00
2018-03-20T13:52:49.376Z,1.27
2018-03-20T13:53:49.607Z,0.70
2018-03-20T13:54:52.112Z,0.80
2018-03-20T13:55:54.574Z,0.50
2018-03-20T13:56:57.062Z,0.80